28 settembre 2022

Tempo Codice Tempo metereologico Temp. Vista Base nuvolosa Vento METAR/SPECI
21:00
V
14 °C 15 mi 14.000 ft 100° 100° 7 kt METAR CYVR 290400Z 10007KT 15SM SCT093 BKN140 14/13 A3002 RMK AC3AC3 SLP167
20:00
V
15 °C 15 mi 8.100 ft 150° 150° 5 kt METAR CYVR 290300Z 15005KT 15SM SCT036 BKN081 15/13 A3001 RMK SC3AC4 SLP165
19:00
M
16 °C 15 mi 2.700 ft 180° 180° 6 kt METAR CYVR 290200Z 18006KT 15SM BKN027 16/14 A3000 RMK SC7 SLP160 DENSITY ALT 100FT
18:00
V
17 °C 15 mi 9.000 ft 150° 150° 5 kt METAR CYVR 290100Z 15005KT 15SM SCT030 SCT040 BKN090 BKN160 17/15 A2998 RMK SC3CU1AC4AC1 CU TR AC TR SH DIST NW-N SLP153 DENSITY ALT 200FT
17:37
V
17 °C 15 mi 8.000 ft 140° 140° 6 kt METAR CYVR 290037Z 14006KT 15SM SCT030 BKN080 BKN090 BKN190 17/15 A2998 RMK SC3AC3AC1AC1 AC TR SH DIST N SLP153 DENSITY ALT 200FT
17:00
V
17 °C 15 mi 3.000 ft 160° 160° 6 kt METAR CYVR 290000Z 16006KT 15SM BKN030 BKN100 OVC160 17/15 A2997 RMK SC6AC1AC1 SLP151 DENSITY ALT 300FT
16:00
V
19 °C 30 mi 10.000 ft 110° 110° 11 kt METAR CYVR 282300Z CCA 11011KT 30SM -RA FEW040 SCT050 BKN100 BKN160 BKN190 19/12 A2996 RMK CU1SC3AC2AC1AC1 AC TR TCU TOPS SW-W SLP148 DENSITY ALT 500FT
15:00
V
19 °C 30 mi 7.000 ft 140° 140° 6 kt METAR CYVR 282200Z 14006KT 050V150 30SM FEW045 BKN070 BKN080 BKN190 19/13 A2996 RMK CU1AC4AC1AC1 TCU EMBEDED TCU SW-NW SLP148 DENSITY ALT 500FT
14:00
V
16 °C 30 mi 10.000 ft 240° 240° 6 kt METAR CYVR 282100Z 24006KT 30SM BKN100 BKN110 BKN190 16/14 A2997 RMK AC5AC1AC1 AC TR SLP150 DENSITY ALT 200FT
13:00
V
18 °C 30 mi 19.000 ft 120° 120° 5 kt METAR CYVR 282000Z 12005KT 100V220 30SM SCT100 BKN190 18/14 A2997 RMK AC4AC3 SLP151 DENSITY ALT 400FT
12:00
V
17 °C 25 mi 15.000 ft 140° 140° 10 kt METAR CYVR 281900Z 14010KT 25SM FEW020 SCT100 BKN150 BKN190 17/13 A2996 RMK SC1AC3AC2AC2 SC TR SLP149 DENSITY ALT 300FT
11:00
V
16 °C 25 mi 10.000 ft 120° 120° 11 kt METAR CYVR 281800Z 12011KT 25SM BKN100 BKN120 16/13 A2996 RMK AC5AC2 SLP149 DENSITY ALT 100FT
10:00
V
15 °C 25 mi 11.000 ft 100° 100° 9 kt METAR CYVR 281700Z 10009KT 25SM FEW018 FEW040 BKN110 OVC140 15/13 A2997 RMK SC2CU1AC3AC3 CU TR PRESRR SLP151 DENSITY ALT 100FT
09:00
V
15 °C 20 mi 13.000 ft 110° 110° 11 kt METAR CYVR 281600Z 11011KT 20SM FEW040 BKN130 OVC150 15/13 A2996 RMK SC2AC4AC2 SLP149
08:00
V
14 °C 20 mi 7.000 ft 090° 090° 9 - 15 kt METAR CYVR 281500Z 09009G15KT 20SM SCT040 BKN070 BKN150 BKN190 14/14 A2994 RMK SC3AC3AC1AC1 AC TR PRESRR SLP141
07:00
V
14 °C 15 mi 7.000 ft 090° 090° 9 kt METAR CYVR 281400Z 09009KT 15SM FEW025 SCT040 BKN070 14/14 A2994 RMK CU1SC4AC3 CU TR SLP140
06:00
V
14 °C 15 mi 4.800 ft 100° 100° 8 kt METAR CYVR 281300Z 10008KT 15SM BKN048 BKN078 14/14 A2990 RMK SC5AC2 SLP129
05:00
V
14 °C 15 mi 4.800 ft 100° 100° 8 kt METAR CYVR 281200Z 10008KT 15SM BKN048 BKN075 14/13 A2989 RMK SC6AC1 SLP124
04:00
V
14 °C 15 mi 13.000 ft 100° 100° 7 kt METAR CYVR 281100Z 10007KT 15SM FEW045 FEW078 BKN130 BKN220 14/12 A2988 RMK SC1AC1AC3CI2 SLP122
03:00
V
15 °C 15 mi 22.000 ft 090° 090° 8 kt METAR CYVR 281000Z 09008KT 15SM FEW130 BKN220 15/12 A2987 RMK AC2CI3 SLP119 DENSITY ALT 100FT
02:00
V
15 °C 15 mi 22.000 ft 110° 110° 10 kt METAR CYVR 280900Z 11010KT 15SM FEW120 BKN220 15/13 A2988 RMK AC1CI6 SLP120 DENSITY ALT 100FT
01:00
V
15 °C 15 mi 22.000 ft 100° 100° 9 kt METAR CYVR 280800Z 10009KT 15SM SCT120 BKN220 15/12 A2987 RMK AC4CI3 SLP117 DENSITY ALT 100FT
00:00
V
17 °C 15 mi 22.000 ft 110° 110° 7 kt METAR CYVR 280700Z 11007KT 15SM SCT120 BKN220 17/12 A2988 RMK AC3CI3 SLP120 DENSITY ALT 300FT

27 settembre 2022

Tempo Codice Tempo metereologico Temp. Vista Base nuvolosa Vento METAR/SPECI
23:00
V
17 °C 15 mi 22.000 ft 120° 120° 8 kt METAR CYVR 280600Z 12008KT 15SM FEW130 BKN220 17/12 A2987 RMK AC1CI4 SLP116 DENSITY ALT 400FT
22:00
V
17 °C 20 mi 22.000 ft 110° 110° 9 kt METAR CYVR 280500Z 11009KT 20SM FEW130 BKN220 17/12 A2985 RMK AC2CI3 SLP112 DENSITY ALT 400FT
21:00
V
16 °C 15 mi 22.000 ft 110° 110° 8 kt METAR CYVR 280400Z 11008KT 15SM FEW130 BKN220 16/13 A2984 RMK AC1CI4 SLP107 DENSITY ALT 200FT
20:00
V
18 °C 12 mi 22.000 ft 080° 080° 6 kt METAR CYVR 280300Z 08006KT 12SM SCT130 BKN220 18/13 A2984 RMK AC4CI2 HZ SLP106 DENSITY ALT 500FT
19:00
V
18 °C 12 mi - 090° 090° 8 kt METAR CYVR 280200Z 09008KT 12SM FEW160 FEW200 SCT220 18/12 A2982 RMK AC2CC1CI2 CC TR HZ SLP101 DENSITY ALT 600FT
18:00
V
20 °C 20 mi 24.000 ft 130° 130° 5 kt METAR CYVR 280100Z 13005KT 100V180 20SM FEW190 SCT210 BKN240 20/13 A2982 RMK AC1CI3CS2 AC TR HZ ALL QUAD SLP100 DENSITY ALT 800FT
17:00
V
19 °C 25 mi - 210° 210° 8 kt METAR CYVR 280000Z 21008KT 25SM SCT240 19/16 A2981 RMK CI4 HZ ALL QUAD SLP097 DENSITY ALT 600FT
16:00
V
21 °C 20 mi - 230° 230° 5 kt METAR CYVR 272300Z 23005KT 200V270 20SM FEW240 21/11 A2981 RMK CI2 HZ ALL QUADS SLP098 DENSITY ALT 900FT
15:00
V
22 °C 25 mi - Var Var 2 kt METAR CYVR 272200Z VRB02KT 25SM SKC 22/13 A2983 RMK HZ ALL QUADS SLP103 DENSITY ALT 900FT
14:00
V
20 °C 25 mi - 250° 250° 6 kt METAR CYVR 272100Z 25006KT 25SM SKC 20/14 A2985 RMK HZ ALL QUADS SLP109 DENSITY ALT 800FT
13:00
V
20 °C 25 mi - 260° 260° 5 kt METAR CYVR 272000Z 26005KT 25SM SKC 20/15 A2985 RMK ALL QUADS SLP112 DENSITY ALT 700FT
12:00
V
19 °C 25 mi - 280° 280° 6 kt METAR CYVR 271900Z 28006KT 25SM SKC 19/14 A2986 RMK HZ ALL QUADS SLP115 DENSITY ALT 600FT
11:00
V
19 °C 25 mi - 230° 230° 4 kt METAR CYVR 271800Z 23004KT 25SM SKC 19/14 A2987 RMK HZ ALL QUADS SLP117 DENSITY ALT 500FT
10:00
V
16 °C 25 mi - 250° 250° 3 kt METAR CYVR 271700Z 25003KT 25SM SKC 16/15 A2988 RMK HZ ALL QUADS SLP121 DENSITY ALT 300FT
09:00
V
16 °C 25 mi - Var Var 2 kt METAR CYVR 271600Z VRB02KT 25SM SKC 16/15 A2988 RMK HZ ALL QUAD SLP120 DENSITY ALT 200FT
08:00
V
13 °C 25 mi - 170° 170° 3 kt METAR CYVR 271500Z 17003KT 25SM SKC 13/13 A2988 RMK HZ ALL QUADS SLP121
07:00
V
12 °C 20 mi - 090° 090° 3 kt METAR CYVR 271400Z 09003KT 050V110 20SM FEW220 12/12 A2988 RMK CI2 HZ ALL QUADS SLP121
06:00
V
12 °C 20 mi - Var 000° 0 kt METAR CYVR 271300Z 00000KT 20SM FEW220 12/12 A2989 RMK CI1 CI TR SLP124
05:00
V
13 °C 20 mi - Var 000° 0 kt METAR CYVR 271200Z 00000KT 20SM FEW220 13/13 A2990 RMK CI1 SLP126
04:00
V
13 °C 20 mi - 260° 260° 6 kt METAR CYVR 271100Z 26006KT 20SM FEW220 13/13 A2990 RMK CI1 SLP127
03:00
V
15 °C 20 mi - 090° 090° 4 kt METAR CYVR 271000Z 09004KT 20SM FEW220 15/13 A2989 RMK CI1 SLP123 DENSITY ALT 100FT
02:00
V
15 °C 20 mi - 110° 110° 7 kt METAR CYVR 270900Z 11007KT 20SM FEW220 15/14 A2990 RMK CI2 SLP126 DENSITY ALT 100FT
01:00
V
14 °C 20 mi - 100° 100° 5 kt METAR CYVR 270800Z 10005KT 20SM FEW220 14/14 A2990 RMK CI2 SLP126
00:00
V
15 °C 20 mi - 100° 100° 6 kt METAR CYVR 270700Z 10006KT 20SM SCT220 15/14 A2990 RMK CI4 SLP126 DENSITY ALT 100FT

26 settembre 2022

Tempo Codice Tempo metereologico Temp. Vista Base nuvolosa Vento METAR/SPECI
23:00
V
15 °C 20 mi - 090° 090° 7 kt METAR CYVR 270600Z 09007KT 20SM FEW220 15/14 A2990 RMK CI1 SLP127 DENSITY ALT 100FT
22:00
V
15 °C 20 mi - 090° 090° 5 kt METAR CYVR 270500Z 09005KT 20SM FEW220 15/14 A2989 RMK CI1 SLP124 DENSITY ALT 100FT
21:00
V
16 °C 20 mi - Var 000° 0 kt METAR CYVR 270400Z 00000KT 20SM FEW220 16/16 A2989 RMK CI1 CI TR SLP124 DENSITY ALT 200FT
20:00
V
15 °C 20 mi - 350° 350° 2 kt METAR CYVR 270300Z 35002KT 20SM FEW220 15/15 A2989 RMK CI1 CI TR SLP123 DENSITY ALT 100FT
Dati più vecchi

Noi e le terze parti seguiamo il tuo comportamento in internet sul nostro sito web con i cookie. Se continui, riteniamo che tu sia d'accordo con la nostra politica sui cookie. Per saperne di più